Time;durP1;ratioP1;P1;durP2;ratioP2;P2;SDS_P1;SDS_P2;PMS_P1;PMS_P2;Temp;Humidity;BMP_temperature;BMP_pressure;BME280_temperature;BME280_humidity;BME280_pressure;Samples;Min_cycle;Max_cycle;Signal;HPM_P1;HPM_P2
2021/12/24 00:00:53;;;;;;;17.50;10.50;;;;;;;-4.12;78.22;98920.75;4996512;28;20042;-71
2021/12/24 00:03:18;;;;;;;17.90;11.73;;;;;;;-4.43;78.12;98898.00;4996591;28;20056;-71
2021/12/24 00:05:45;;;;;;;23.50;11.53;;;;;;;-4.27;79.16;98927.13;4996281;28;20031;-72
2021/12/24 00:08:11;;;;;;;22.05;13.77;;;;;;;-4.21;79.19;98916.25;4995019;28;20425;-70
2021/12/24 00:10:39;;;;;;;20.20;12.23;;;;;;;-4.21;78.30;98908.47;4996095;28;20050;-71
2021/12/24 00:13:12;;;;;;;21.25;11.55;;;;;;;-4.23;77.69;98906.91;4996480;28;20045;-70
2021/12/24 00:18:48;;;;;;;24.73;11.40;;;;;;;-4.23;77.90;98896.53;4919297;29;20048;-71
2021/12/24 00:22:12;;;;;;;20.83;11.55;;;;;;;-4.33;77.70;98874.78;4987214;28;20494;-71
2021/12/24 00:35:16;;;;;;;16.48;11.55;;;;;;;-4.41;78.50;98885.72;4996160;28;20121;-72
2021/12/24 00:37:45;;;;;;;20.77;13.32;;;;;;;-4.70;78.83;98828.13;4996375;28;20062;-70
2021/12/24 00:42:45;;;;;;;20.60;13.38;;;;;;;-4.67;79.99;98839.13;4996300;28;20552;-69
2021/12/24 00:45:17;;;;;;;21.92;11.73;;;;;;;-4.46;79.58;98877.44;4996001;28;20046;-69
2021/12/24 00:47:44;;;;;;;28.60;16.83;;;;;;;-4.49;79.47;98864.69;4996065;28;20089;-70
2021/12/24 00:50:15;;;;;;;20.85;12.13;;;;;;;-4.55;80.04;98854.75;4995508;28;20035;-71
2021/12/24 00:52:51;;;;;;;24.75;13.85;;;;;;;-4.51;79.73;98856.19;4995894;28;20045;-72
2021/12/24 00:55:20;;;;;;;23.92;12.93;;;;;;;-4.54;80.14;98856.41;4995892;28;20042;-70
2021/12/24 00:57:50;;;;;;;25.70;14.80;;;;;;;-4.50;80.50;98863.03;4995642;28;20042;-71
2021/12/24 01:00:22;;;;;;;24.10;11.70;;;;;;;-4.49;80.56;98852.50;4995358;28;20383;-72
2021/12/24 09:02:19;;;;;;;9.02;4.35;;;;;;;-4.86;74.12;98586.97;5071072;28;20389;-72
2021/12/24 09:04:45;;;;;;;4.37;3.20;;;;;;;-4.74;74.32;98593.81;5071377;28;20040;-73
2021/12/24 09:07:10;;;;;;;3.40;3.10;;;;;;;-4.82;73.69;98580.59;5069971;28;20056;-69
2021/12/24 09:09:36;;;;;;;2.90;2.70;;;;;;;-4.81;72.78;98603.03;5071028;28;20133;-71
2021/12/24 09:12:02;;;;;;;5.00;3.43;;;;;;;-4.86;72.35;98610.34;5072032;28;20119;-75
2021/12/24 09:14:27;;;;;;;4.90;2.70;;;;;;;-4.91;70.53;98611.66;5070868;28;20644;-69
2021/12/24 09:16:53;;;;;;;2.73;2.50;;;;;;;-5.08;71.58;98612.94;5069408;28;20032;-71
2021/12/24 09:19:24;;;;;;;3.83;2.53;;;;;;;-5.15;71.85;98616.94;5070121;28;20037;-78
2021/12/24 09:21:50;;;;;;;3.92;3.35;;;;;;;-5.41;72.16;98595.53;5071317;28;20071;-74
2021/12/24 09:24:18;;;;;;;4.38;3.85;;;;;;;-5.61;73.08;98586.66;5069397;28;20033;-65
2021/12/24 09:26:44;;;;;;;3.67;3.38;;;;;;;-5.47;72.64;98615.00;5069024;28;20520;-66
2021/12/24 09:29:11;;;;;;;4.05;2.63;;;;;;;-5.56;72.98;98602.69;5069059;28;20048;-73
2021/12/24 09:31:37;;;;;;;2.45;2.25;;;;;;;-5.50;73.08;98609.19;5069217;28;20067;-69
2021/12/24 09:34:03;;;;;;;5.07;2.53;;;;;;;-5.57;71.94;98595.03;5069191;28;20036;-70
2021/12/24 09:36:29;;;;;;;5.72;3.60;;;;;;;-5.53;71.44;98607.66;5069147;28;20040;-68
2021/12/24 09:38:58;;;;;;;2.70;2.50;;;;;;;-5.58;71.08;98604.56;5068943;28;20037;-69
2021/12/24 09:41:24;;;;;;;;;;;;;;;-5.50;71.58;98622.16;5069038;28;20036;-69
2021/12/24 09:43:51;;;;;;;3.08;2.88;;;;;;;-5.53;71.21;98615.44;5067978;28;20387;-67
2021/12/24 09:46:16;;;;;;;3.47;3.17;;;;;;;-5.63;69.54;98599.72;5068884;28;20056;-67
2021/12/24 09:48:42;;;;;;;4.30;3.40;;;;;;;-5.49;69.47;98611.69;5068615;28;20094;-71
2021/12/24 09:51:08;;;;;;;3.67;3.27;;;;;;;-5.42;70.13;98614.66;5068514;28;20033;-72
2021/12/24 09:53:36;;;;;;;4.07;2.47;;;;;;;-5.63;69.48;98604.09;5068627;28;20033;-68
2021/12/24 09:56:03;;;;;;;2.80;2.50;;;;;;;-5.74;69.48;98615.25;5069018;28;20131;-69
2021/12/24 09:58:30;;;;;;;2.55;2.35;;;;;;;-5.79;68.75;98627.72;5068576;28;20025;-69
2021/12/24 10:00:57;;;;;;;2.67;2.47;;;;;;;-5.82;69.89;98606.38;5067906;28;20508;-68
2021/12/24 10:03:34;;;;;;;2.78;2.33;;;;;;;-5.70;70.60;98610.69;5068611;28;20123;-70
2021/12/24 10:06:01;;;;;;;3.72;2.90;;;;;;;-5.80;70.16;98610.50;5068703;28;20377;-78
2021/12/24 10:08:28;;;;;;;4.07;2.80;;;;;;;-5.78;70.83;98628.53;5068375;28;20044;-68
2021/12/24 10:11:13;;;;;;;3.92;2.38;;;;;;;-5.85;71.58;98616.97;5067731;28;20492;-71
2021/12/24 10:13:43;;;;;;;2.95;2.67;;;;;;;-5.96;71.96;98608.25;5054786;28;20041;-70
2021/12/24 10:16:13;;;;;;;3.42;3.00;;;;;;;-5.98;71.73;98612.72;5054490;28;20075;-70
2021/12/24 10:18:48;;;;;;;6.22;4.32;;;;;;;-5.89;72.34;98621.56;5054920;28;20037;-67
2021/12/24 10:21:19;;;;;;;3.72;3.20;;;;;;;-5.76;72.81;98634.47;5054444;28;20048;-68
2021/12/24 10:24:01;;;;;;;3.50;3.20;;;;;;;-5.62;73.33;98640.28;5054516;28;20120;-68
2021/12/24 10:26:29;;;;;;;4.85;3.22;;;;;;;-5.43;72.41;98624.19;5054542;28;20040;-66
2021/12/24 10:29:00;;;;;;;11.40;7.32;;;;;;;-5.38;71.71;98611.72;5053208;28;20091;-67
2021/12/24 10:31:36;;;;;;;5.60;3.65;;;;;;;-5.26;71.29;98625.50;5054237;28;20511;-71
2021/12/24 10:34:20;;;;;;;6.47;3.60;;;;;;;-5.21;72.22;98625.16;5054257;28;20439;-67
2021/12/24 10:37:04;;;;;;;5.18;3.25;;;;;;;-5.24;70.96;98615.00;5054092;28;20037;-66
2021/12/24 10:39:50;;;;;;;20.95;8.40;;;;;;;-5.31;71.10;98614.66;5053918;28;20477;-67
2021/12/24 10:42:29;;;;;;;14.05;5.90;;;;;;;-5.48;70.38;98587.41;5055167;28;20032;-70
2021/12/24 10:44:57;;;;;;;16.65;9.05;;;;;;;-5.26;70.38;98619.50;5054280;28;20067;-66
2021/12/24 10:47:33;;;;;;;11.50;6.22;;;;;;;-5.40;69.22;98608.41;5054024;28;20119;-65
2021/12/24 10:53:00;;;;;;;3.88;2.80;;;;;;;-5.62;70.75;98613.53;5055016;28;20423;-68
2021/12/24 10:55:47;;;;;;;7.35;3.00;;;;;;;-5.58;70.23;98609.75;5054066;28;20589;-66
2021/12/24 10:58:16;;;;;;;5.80;3.65;;;;;;;-5.59;70.53;98615.06;5053856;28;20037;-69
2021/12/24 11:00:48;;;;;;;5.13;3.25;;;;;;;-5.55;69.43;98625.09;5052327;28;20060;-67
2021/12/24 11:03:22;;;;;;;5.80;2.30;;;;;;;-5.55;69.04;98624.25;5054132;28;20049;-65
2021/12/24 11:06:02;;;;;;;6.65;2.75;;;;;;;-5.62;70.00;98613.53;5053916;28;20040;-71
2021/12/24 11:08:28;;;;;;;2.65;2.45;;;;;;;-5.53;69.27;98627.56;5053736;28;20049;-64
2021/12/24 11:10:56;;;;;;;5.65;2.20;;;;;;;-5.67;69.60;98602.66;5052433;28;20049;-67
2021/12/24 11:13:29;;;;;;;4.50;2.63;;;;;;;-5.94;70.08;98566.66;5053464;28;20036;-62
2021/12/24 11:15:56;;;;;;;2.72;2.50;;;;;;;-5.75;70.07;98602.41;5052418;28;20071;-65
2021/12/24 18:38:27;;;;;;;13.00;7.70;;;;;;;-8.56;70.79;98497.72;4982636;27;4156433;-68
2021/12/24 18:40:55;;;;;;;12.48;7.53;;;;;;;-8.64;70.52;98489.66;5109026;28;20118;-70
2021/12/24 18:43:26;;;;;;;16.38;8.85;;;;;;;-8.66;69.96;98486.34;5108958;28;20071;-68
2021/12/24 18:45:55;;;;;;;10.98;7.70;;;;;;;-8.61;70.54;98483.47;5089413;28;20055;-69
2021/12/24 18:48:21;;;;;;;14.73;8.95;;;;;;;-8.45;69.63;98495.28;5087685;28;20093;-66
2021/12/24 18:50:51;;;;;;;11.13;7.77;;;;;;;-8.46;69.59;98490.22;5087599;28;20035;-68
2021/12/24 18:53:18;;;;;;;9.68;7.47;;;;;;;-8.29;69.75;98500.25;5071338;28;20036;-68
2021/12/24 18:55:44;;;;;;;11.02;8.30;;;;;;;-8.23;70.50;98499.00;5088612;28;20090;-67
2021/12/24 18:58:10;;;;;;;11.17;7.43;;;;;;;-8.97;69.93;98367.97;5089082;28;20067;-63
2021/12/24 19:00:38;;;;;;;10.48;7.25;;;;;;;-8.58;69.80;98440.22;5088952;28;20036;-68
2021/12/24 19:03:05;;;;;;;10.93;7.10;;;;;;;-8.48;70.43;98453.34;5089265;28;20040;-66
2021/12/24 19:05:31;;;;;;;10.82;6.30;;;;;;;-8.35;69.17;98481.78;5088464;28;20032;-65
2021/12/24 19:07:58;;;;;;;8.53;5.77;;;;;;;-8.24;68.39;98489.63;5088708;28;20048;-63
2021/12/24 19:10:25;;;;;;;5.40;4.43;;;;;;;-8.26;67.19;98491.47;5088857;28;20043;-65
2021/12/24 19:12:53;;;;;;;5.80;4.85;;;;;;;-8.35;66.37;98463.72;5088244;28;20028;-65
2021/12/24 19:15:20;;;;;;;;;;;;;;;-8.17;65.49;98483.09;5088667;28;20059;-66
2021/12/24 19:17:49;;;;;;;9.75;4.95;;;;;;;-8.31;65.42;98467.72;5104177;28;20461;-64
2021/12/24 19:20:17;;;;;;;11.65;5.65;;;;;;;-8.30;65.71;98472.78;5087459;28;20040;-63
2021/12/24 19:22:45;;;;;;;6.68;5.03;;;;;;;-8.30;67.38;98465.03;5088303;28;20133;-64
2021/12/24 19:25:11;;;;;;;7.45;5.40;;;;;;;-8.11;65.98;98487.88;5088621;28;20074;-63
2021/12/24 19:27:37;;;;;;;10.55;5.72;;;;;;;-8.06;66.10;98492.75;5088224;28;20064;-67
2021/12/24 19:30:06;;;;;;;5.90;5.22;;;;;;;-8.14;65.59;98488.06;5088653;28;20442;-61
2021/12/24 19:32:34;;;;;;;8.25;6.00;;;;;;;-8.22;66.00;98485.19;5088906;28;20403;-66
2021/12/24 19:35:00;;;;;;;14.35;8.13;;;;;;;-8.29;65.47;98478.75;5086969;28;20047;-64
2021/12/24 19:37:31;;;;;;;93.15;32.63;;;;;;;-8.16;66.30;98500.25;5099721;28;20423;-63
2021/12/24 19:39:58;;;;;;;57.33;26.83;;;;;;;-8.19;66.63;98496.13;5108346;28;20047;-64
2021/12/24 19:42:28;;;;;;;45.43;23.20;;;;;;;-8.37;67.46;98471.56;5124468;28;20048;-65
2021/12/24 19:44:53;;;;;;;32.35;16.83;;;;;;;-8.67;68.46;98430.50;5128578;28;20050;-66
2021/12/24 19:47:19;;;;;;;17.40;11.20;;;;;;;-8.31;68.98;98485.78;5129244;28;20036;-63
2021/12/24 19:49:45;;;;;;;22.30;12.40;;;;;;;-8.44;69.18;98470.28;5115700;28;20161;-63
2021/12/24 19:52:10;;;;;;;17.00;9.23;;;;;;;-8.40;69.63;98474.31;5115233;28;20032;-63
2021/12/24 19:54:36;;;;;;;14.77;8.10;;;;;;;-8.33;69.50;98492.84;5113914;28;20064;-63
2021/12/24 19:57:02;;;;;;;17.67;9.70;;;;;;;-8.36;69.84;98482.72;5114382;28;20036;-64
2021/12/24 19:59:29;;;;;;;12.23;6.83;;;;;;;-8.34;70.04;98478.28;5113941;28;20032;-64
2021/12/24 20:01:55;;;;;;;18.42;11.45;;;;;;;-8.31;69.08;98498.69;5114817;28;20039;-65
2021/12/24 20:04:21;;;;;;;15.98;9.00;;;;;;;-8.50;68.36;98456.03;5115376;28;20039;-64
2021/12/24 20:06:47;;;;;;;10.77;7.40;;;;;;;-8.35;67.93;98469.72;5115036;28;20036;-64
2021/12/24 20:09:12;;;;;;;10.37;7.40;;;;;;;-8.33;68.54;98467.03;5114947;28;20066;-65
2021/12/24 20:11:38;;;;;;;10.13;6.00;;;;;;;-8.32;68.01;98473.81;5115030;28;20398;-64
2021/12/24 20:14:14;;;;;;;6.83;4.87;;;;;;;-8.38;67.32;98463.88;5114775;28;20032;-65
2021/12/24 20:16:48;;;;;;;6.80;6.10;;;;;;;-8.35;67.85;98479.19;5114820;28;20049;-67
2021/12/24 20:19:15;;;;;;;10.32;6.63;;;;;;;-8.37;68.80;98481.06;5114823;28;20027;-67
2021/12/24 20:21:40;;;;;;;9.13;6.57;;;;;;;-8.61;67.89;98434.44;5114736;28;20501;-62
2021/12/24 20:24:07;;;;;;;8.17;5.97;;;;;;;-8.35;68.65;98468.88;5114608;28;20032;-64
2021/12/24 20:26:33;;;;;;;8.43;6.05;;;;;;;-8.19;68.95;98479.81;5114597;28;20032;-64
2021/12/24 20:28:59;;;;;;;10.13;6.07;;;;;;;-8.14;68.79;98467.41;5114246;28;20077;-63
2021/12/24 20:31:24;;;;;;;8.50;5.10;;;;;;;-7.95;69.22;98487.69;5095696;28;20527;-64
2021/12/24 20:33:50;;;;;;;8.03;6.13;;;;;;;-8.56;68.43;98379.00;5114351;28;20035;-65
2021/12/24 20:36:17;;;;;;;8.93;6.80;;;;;;;-7.88;69.35;98469.09;5114022;28;20039;-64
2021/12/24 20:38:45;;;;;;;9.32;6.88;;;;;;;-7.82;68.09;98468.66;5114372;28;20570;-63
2021/12/24 20:41:14;;;;;;;11.68;6.93;;;;;;;-7.72;68.07;98491.31;5114234;28;20452;-63
2021/12/24 20:43:43;;;;;;;10.50;6.35;;;;;;;-7.82;66.93;98491.91;5095894;28;20051;-63
2021/12/24 20:46:08;;;;;;;10.60;7.55;;;;;;;-7.90;68.35;98485.63;5114266;28;20027;-64
2021/12/24 20:48:38;;;;;;;8.20;5.60;;;;;;;-8.01;67.37;98483.75;5114202;28;20387;-64
2021/12/24 20:51:06;;;;;;;7.22;5.78;;;;;;;-8.16;68.00;98479.59;5114162;28;20501;-64
2021/12/24 20:53:31;;;;;;;8.32;6.05;;;;;;;-8.27;68.99;98479.50;5114084;28;20418;-65
2021/12/24 20:55:57;;;;;;;10.33;6.93;;;;;;;-8.39;69.08;98467.41;5114280;28;20039;-63
2021/12/24 20:58:27;;;;;;;10.43;7.23;;;;;;;-8.26;69.63;98481.97;5113623;28;20392;-64
2021/12/24 21:00:53;;;;;;;10.55;6.07;;;;;;;-8.13;68.84;98476.81;5112464;28;20038;-63
2021/12/24 21:03:19;;;;;;;12.15;5.45;;;;;;;-8.01;68.73;98478.59;5114299;28;20046;-64
2021/12/24 21:05:45;;;;;;;8.87;6.40;;;;;;;-8.38;68.56;98412.25;5113976;28;20406;-62
2021/12/24 21:08:13;;;;;;;11.75;5.88;;;;;;;-8.10;69.00;98468.84;5113644;28;20039;-63
2021/12/24 21:10:43;;;;;;;8.60;5.45;;;;;;;-8.34;68.89;98435.22;5113666;28;20043;-63
2021/12/24 21:13:09;;;;;;;10.85;6.55;;;;;;;-8.01;68.45;98481.19;5113617;28;20043;-63
2021/12/24 21:15:35;;;;;;;10.00;6.45;;;;;;;-7.98;68.50;98475.81;5113642;28;20077;-65
2021/12/24 21:18:01;;;;;;;10.27;6.50;;;;;;;-7.88;67.73;98476.00;5113401;28;20040;-64
2021/12/24 21:20:26;;;;;;;10.73;5.00;;;;;;;-7.80;67.84;98471.16;5113419;28;20063;-65
2021/12/24 21:22:52;;;;;;;10.17;6.97;;;;;;;-7.81;68.61;98465.19;5113705;28;20043;-62
2021/12/24 21:25:17;;;;;;;9.47;5.90;;;;;;;-7.74;67.81;98480.25;5095100;28;20502;-64
2021/12/24 21:27:44;;;;;;;8.67;6.00;;;;;;;-7.81;67.87;98475.50;5113230;28;20470;-64
2021/12/24 21:30:22;;;;;;;10.52;5.03;;;;;;;-7.82;67.19;98479.00;5114320;28;20395;-67
2021/12/24 21:32:48;;;;;;;11.00;4.93;;;;;;;-7.77;68.23;98476.13;5096023;28;20046;-65
2021/12/24 21:35:14;;;;;;;7.27;4.73;;;;;;;-7.64;68.09;98476.13;5113459;28;20032;-67
2021/12/24 21:37:43;;;;;;;13.55;5.65;;;;;;;-7.57;67.41;98467.00;5091709;28;20051;-62
2021/12/24 21:40:13;;;;;;;10.27;5.28;;;;;;;-7.46;66.22;98480.03;5092795;28;20509;-63
2021/12/24 21:42:40;;;;;;;8.30;4.95;;;;;;;-7.52;65.30;98472.69;5092797;28;20131;-63
2021/12/24 21:45:08;;;;;;;8.15;6.07;;;;;;;-7.64;65.23;98463.19;5093228;28;20076;-64
2021/12/24 21:47:35;;;;;;;11.35;4.45;;;;;;;-7.72;65.10;98468.88;5094019;28;20491;-62
2021/12/24 21:50:01;;;;;;;8.90;6.57;;;;;;;-7.77;65.43;98476.13;5092852;28;20036;-63
2021/12/24 21:52:26;;;;;;;10.32;5.07;;;;;;;-8.50;66.15;98360.53;5092656;28;20051;-64
2021/12/24 21:54:52;;;;;;;11.50;5.13;;;;;;;-8.02;65.35;98443.38;5092829;28;20031;-63
2021/12/24 21:57:18;;;;;;;16.37;10.50;;;;;;;-7.75;65.27;98481.19;5092946;28;20036;-65
2021/12/24 21:59:45;;;;;;;13.07;5.57;;;;;;;-7.77;65.57;98476.13;5093102;28;20028;-62
2021/12/24 22:02:15;;;;;;;9.90;6.00;;;;;;;-7.84;66.56;98467.94;5091828;28;20042;-64
2021/12/24 22:04:46;;;;;;;11.48;6.35;;;;;;;-7.91;65.69;98458.97;5092494;28;20032;-65
2021/12/24 22:09:56;;;;;;;16.55;5.63;;;;;;;-7.82;65.59;98475.59;5092587;28;20491;-64
2021/12/24 22:12:23;;;;;;;7.87;4.60;;;;;;;-7.68;65.81;98479.84;5091964;28;20169;-62
2021/12/24 22:14:49;;;;;;;9.90;5.03;;;;;;;-7.63;64.09;98462.25;5092507;28;20048;-61
2021/12/24 22:17:16;;;;;;;7.47;4.87;;;;;;;-7.47;64.65;98473.22;5092213;28;20154;-63
2021/12/24 22:19:44;;;;;;;7.50;6.38;;;;;;;-7.35;63.61;98477.53;5092288;28;20032;-62
2021/12/24 22:22:28;;;;;;;11.02;5.05;;;;;;;-7.43;63.73;98485.00;5091827;28;20028;-64
2021/12/24 22:25:11;;;;;;;12.93;6.75;;;;;;;-7.62;64.40;98469.09;5091536;28;20036;-66
2021/12/24 22:27:39;;;;;;;9.25;5.35;;;;;;;-7.68;65.69;98474.66;5092199;28;20529;-60
2021/12/24 22:30:06;;;;;;;6.10;5.03;;;;;;;-7.79;65.27;98459.09;5092422;28;20043;-61
2021/12/24 22:32:32;;;;;;;14.60;6.70;;;;;;;-7.87;64.69;98470.75;5090821;28;20086;-64
2021/12/24 22:34:57;;;;;;;7.93;5.53;;;;;;;-7.95;65.38;98460.09;5092454;28;20043;-61
2021/12/24 22:37:24;;;;;;;6.83;5.23;;;;;;;-7.96;66.34;98461.03;5100925;28;20059;-63
2021/12/24 22:39:53;;;;;;;5.78;4.43;;;;;;;-8.09;65.98;98442.13;5112641;28;20097;-63
2021/12/24 22:42:20;;;;;;;10.18;4.68;;;;;;;-8.08;66.25;98456.69;5112411;28;20103;-63
2021/12/24 22:44:56;;;;;;;12.27;5.50;;;;;;;-8.15;66.29;98460.59;5112263;28;20040;-62
2021/12/24 22:47:26;;;;;;;58.88;25.48;;;;;;;-9.06;66.40;98313.50;5112478;28;20047;-65
2021/12/24 22:49:52;;;;;;;27.27;14.32;;;;;;;-8.24;66.61;98438.81;5112269;28;20440;-64
2021/12/24 22:52:38;;;;;;;18.58;11.48;;;;;;;-8.17;66.27;98441.78;5112359;28;20122;-64
2021/12/24 22:55:05;;;;;;;9.85;6.45;;;;;;;-8.09;66.69;98449.88;5112292;28;20043;-61
2021/12/24 22:57:30;;;;;;;7.00;5.32;;;;;;;-8.05;66.17;98450.50;5112162;28;20035;-62
2021/12/24 22:59:56;;;;;;;7.97;5.33;;;;;;;-8.09;65.66;98446.44;5112248;28;20036;-63
2021/12/24 23:02:21;;;;;;;6.93;4.57;;;;;;;-8.09;65.41;98462.78;5112298;28;20126;-64
2021/12/24 23:04:47;;;;;;;9.83;5.43;;;;;;;-8.16;65.02;98464.09;5111967;28;20031;-64
2021/12/24 23:07:12;;;;;;;10.40;4.77;;;;;;;-8.18;65.63;98450.47;5112617;28;20042;-64
2021/12/24 23:09:38;;;;;;;6.10;4.83;;;;;;;-8.11;65.81;98446.53;5112360;28;20039;-64
2021/12/24 23:12:05;;;;;;;8.00;4.30;;;;;;;-7.97;65.62;98472.28;5112156;28;20043;-64
2021/12/24 23:14:33;;;;;;;7.65;4.90;;;;;;;-7.98;66.37;98462.88;5111831;28;20040;-63
2021/12/24 23:17:01;;;;;;;6.88;4.35;;;;;;;-7.98;65.86;98449.97;5112219;28;20043;-62
2021/12/24 23:19:27;;;;;;;9.10;4.15;;;;;;;-7.81;66.15;98470.34;5112073;28;20499;-63
2021/12/24 23:21:56;;;;;;;9.27;5.10;;;;;;;-7.82;65.09;98457.50;5112081;28;20051;-66
2021/12/24 23:24:24;;;;;;;8.18;5.10;;;;;;;-7.88;64.51;98451.00;5114154;28;20032;-66
2021/12/24 23:26:53;;;;;;;8.02;4.25;;;;;;;-7.96;65.93;98445.53;5098401;28;20036;-63
2021/12/24 23:29:21;;;;;;;8.43;4.10;;;;;;;-7.85;66.88;98468.88;5116082;28;20040;-63
2021/12/24 23:31:50;;;;;;;7.90;4.50;;;;;;;-7.79;66.49;98467.66;5097834;28;20032;-66
2021/12/24 23:34:16;;;;;;;7.03;3.95;;;;;;;-7.84;66.96;98452.44;5116123;28;20166;-64
2021/12/24 23:36:44;;;;;;;10.13;4.23;;;;;;;-7.77;65.97;98460.63;5115112;28;20138;-63
2021/12/24 23:39:11;;;;;;;10.15;4.75;;;;;;;-7.66;66.42;98467.63;5097453;28;20044;-63
2021/12/24 23:41:37;;;;;;;6.95;5.38;;;;;;;-7.64;66.54;98476.94;5115597;28;20095;-62
2021/12/24 23:44:12;;;;;;;11.73;6.57;;;;;;;-7.68;66.72;98465.16;5115426;28;20031;-62
2021/12/24 23:46:50;;;;;;;4.95;4.43;;;;;;;-7.57;66.63;98482.50;5115168;28;20036;-63
2021/12/24 23:49:40;;;;;;;5.50;4.20;;;;;;;-7.63;66.22;98457.09;5115786;28;20113;-61
2021/12/24 23:52:09;;;;;;;7.77;4.83;;;;;;;-7.54;67.20;98475.38;5115166;28;20035;-62
2021/12/24 23:54:35;;;;;;;;;;;;;;;-7.44;67.20;98469.59;5115836;28;20402;-63
2021/12/24 23:57:00;;;;;;;8.87;5.20;;;;;;;-7.44;67.38;98470.41;5114842;28;19922;-62
2021/12/24 23:59:26;;;;;;;12.27;6.87;;;;;;;-7.45;67.92;98455.84;5114932;28;20035;-63
